Aérodrome :
LOGIN :

S'inscrire | Disclaimer

   EN    FR    IT 

 










Légende :    VFR   VFR Marginal   IFR   IFR Intensif   IFR Très Intensif
Visi : 
Plafond : 
>= 8 km
>= 3000ft
5 à 8 km
1000 à 3000 ft
1500m à 5 km
500 à 1000 ft
800 à 1500m
200 à 500 ft
< 800m
< 200 ft
Symboles :   Orages  Brouillard  Fortes neiges  Fortes précipitations  Vent > 20 kt
SIGMETs :   Divers  Orages  Givrage  Turbulence  Onde Orograph.  Cendres Volcan.






- Altitude de l'aérodrome : 1161 ft
- Code IATA : RJL


LELO - Logroño-Agoncillo

DERNIER METAR :
  • 181730Z 27014KT CAVOK 28/12 Q1008

METARs EXPIRÉS :
  • 181700Z 26012KT 230V290 CAVOK 28/13 Q1008
  • 181630Z 26010KT 230V290 CAVOK 27/14 Q1009
  • 181600Z 27010KT 230V330 CAVOK 29/14 Q1009
  • 181530Z 27008KT 240V360 9999 FEW070 27/14 Q1009
  • 181500Z 27010KT 240V300 9999 FEW070 28/13 Q1009
  • 181430Z 26009KT 9999 FEW070 28/12 Q1009
  • 181400Z 30006KT 260V010 9999 SCT070 FEW075CB 26/13 Q1009
  • 181330Z VRB02KT 9999 SCT070 FEW075CB 28/15 Q1010
  • 181300Z 09007KT 050V150 CAVOK 27/14 Q1010

TAF TAF LELO
Valide du 18 à 15h jusqu'au 19 à 15h UTC


181400Z 1815/1915 28007KT 9999 SCT050 TX30/1815Z TN15/1905Z
PROB30
TEMPO 1815/1824 VRB20G35KT 4000 TSRA SHRA SCT030CB



MET'MAP, la Météo Aéronautique d'un coup d'oeil ! - Copyright ORBIFLY Décembre 2007 - Disclaimer

ORBIFLY MET'MAP TEAM :

Programmation & Développement : Alexandra Zaïnal
Sur une idée originale de : Baudouin d'Aumeries
Soutien technique & logistique : Manuel Goepfert
Assistance : Marc-Olivier Méhu




SOURCES & CREDITS :

   NOAA